createdAt,value
2022-08-26T00:00:56.891Z,100949.75
2022-08-26T00:02:59.421Z,100953.66
2022-08-26T00:05:01.182Z,100951.13
2022-08-26T00:07:03.050Z,100954.66
2022-08-26T00:09:08.104Z,100953.25
2022-08-26T00:11:10.450Z,100950.09
2022-08-26T00:13:13.513Z,100948.63
2022-08-26T00:15:22.941Z,100948.59
2022-08-26T00:17:25.709Z,100944.41
2022-08-26T00:19:28.523Z,100955.16
2022-08-26T00:21:30.350Z,100947.28
2022-08-26T00:23:32.158Z,100948.13
2022-08-26T00:25:34.256Z,100946.03
2022-08-26T00:27:38.053Z,100940.44
2022-08-26T00:29:40.346Z,100943.50
2022-08-26T00:31:42.971Z,100942.44
2022-08-26T00:33:47.129Z,100948.78
2022-08-26T00:35:49.309Z,100946.53
2022-08-26T00:37:54.067Z,100938.84
2022-08-26T00:39:56.615Z,100940.91
2022-08-26T00:42:02.653Z,100933.88
2022-08-26T00:44:04.837Z,100935.69
2022-08-26T00:46:35.413Z,100941.25
2022-08-26T00:48:39.975Z,100938.22
2022-08-26T00:50:50.640Z,100946.28
2022-08-26T00:52:54.807Z,100944.00
2022-08-26T00:55:09.505Z,100950.94
2022-08-26T00:57:16.756Z,100944.44
2022-08-26T00:59:19.548Z,100945.84
2022-08-26T01:01:22.881Z,100951.41
2022-08-26T01:03:26.099Z,100946.75
2022-08-26T01:05:29.373Z,100944.28
2022-08-26T01:07:33.477Z,100952.56
2022-08-26T01:09:36.891Z,100948.16
2022-08-26T01:11:39.434Z,100946.13
2022-08-26T01:13:41.535Z,100950.25
2022-08-26T01:15:47.803Z,100947.97
2022-08-26T01:17:49.991Z,100951.16
2022-08-26T01:19:59.363Z,100935.78
2022-08-26T01:22:08.230Z,100944.25
2022-08-26T01:24:11.892Z,100945.88
2022-08-26T01:26:24.094Z,100949.75
2022-08-26T01:28:31.747Z,100947.38
2022-08-26T01:30:35.632Z,100953.97
2022-08-26T01:32:39.343Z,100946.75
2022-08-26T01:34:41.301Z,100947.59
2022-08-26T01:36:46.907Z,100942.78
2022-08-26T01:38:52.654Z,100944.91
2022-08-26T01:40:54.896Z,100945.53
2022-08-26T01:42:56.896Z,100942.00
2022-08-26T01:45:09.743Z,100944.19
2022-08-26T01:47:14.716Z,100951.38
2022-08-26T01:49:17.470Z,100953.88
2022-08-26T01:51:22.395Z,100953.16
2022-08-26T01:53:25.149Z,100947.38
2022-08-26T01:55:32.963Z,100939.72
2022-08-26T01:57:37.186Z,100943.78
2022-08-26T01:59:38.807Z,100937.47
2022-08-26T02:01:41.162Z,100942.25
2022-08-26T02:04:01.574Z,100925.75
2022-08-26T02:06:09.182Z,100938.22
2022-08-26T02:08:12.493Z,100931.38
2022-08-26T02:10:15.821Z,100930.44
2022-08-26T02:12:20.393Z,100920.72
2022-08-26T02:14:30.300Z,100931.19
2022-08-26T02:16:36.693Z,100921.38
2022-08-26T02:18:42.067Z,100936.56
2022-08-26T02:20:44.736Z,100933.22
2022-08-26T02:22:47.905Z,100936.50
2022-08-26T02:25:00.178Z,100930.63
2022-08-26T02:27:01.930Z,100934.00
2022-08-26T02:29:10.081Z,100937.94
2022-08-26T02:31:12.162Z,100929.34
2022-08-26T02:33:14.070Z,100926.44
2022-08-26T02:35:18.312Z,100932.03
2022-08-26T02:37:22.937Z,100930.16
2022-08-26T02:39:25.091Z,100933.59
2022-08-26T02:41:26.841Z,100927.41
2022-08-26T02:43:31.656Z,100936.66
2022-08-26T02:45:34.709Z,100926.50
2022-08-26T02:47:36.533Z,100926.84
2022-08-26T02:49:39.253Z,100928.63
2022-08-26T02:51:41.027Z,100935.28
2022-08-26T02:53:44.837Z,100932.97
2022-08-26T02:55:47.001Z,100932.53
2022-08-26T02:57:50.151Z,100933.25
2022-08-26T02:59:53.491Z,100919.09
2022-08-26T03:01:56.063Z,100922.09
2022-08-26T03:03:59.389Z,100934.56
2022-08-26T03:06:01.130Z,100926.78
2022-08-26T03:08:03.130Z,100928.72
2022-08-26T03:10:08.384Z,100928.91
2022-08-26T03:12:10.680Z,100935.28
2022-08-26T03:14:12.480Z,100925.41
2022-08-26T03:16:15.092Z,100917.66
2022-08-26T03:18:17.016Z,100920.78
2022-08-26T03:20:19.018Z,100924.94
2022-08-26T03:22:20.784Z,100923.75
2022-08-26T03:24:22.626Z,100921.78
2022-08-26T03:26:28.292Z,100925.88
2022-08-26T03:28:32.823Z,100924.84
2022-08-26T03:30:34.738Z,100924.84
2022-08-26T03:32:36.503Z,100921.88
2022-08-26T03:34:39.131Z,100924.13
2022-08-26T03:36:41.676Z,100928.00
2022-08-26T03:38:43.490Z,100919.13
2022-08-26T03:40:47.798Z,100919.28
2022-08-26T03:42:50.320Z,100919.94
2022-08-26T03:44:52.118Z,100917.09
2022-08-26T03:46:54.373Z,100917.91
2022-08-26T03:48:56.283Z,100912.19
2022-08-26T03:50:58.018Z,100912.56
2022-08-26T03:53:00.013Z,100922.81
2022-08-26T03:55:01.991Z,100917.75
2022-08-26T03:57:05.107Z,100914.22
2022-08-26T03:59:07.877Z,100913.84
2022-08-26T04:01:09.679Z,100910.72
2022-08-26T04:03:14.736Z,100909.59
2022-08-26T04:05:21.513Z,100912.34
2022-08-26T04:07:24.454Z,100921.22
2022-08-26T04:09:27.726Z,100912.16
2022-08-26T04:11:30.690Z,100915.31
2022-08-26T04:13:36.406Z,100918.63
2022-08-26T04:15:38.159Z,100922.91
2022-08-26T04:17:40.058Z,100927.06
2022-08-26T04:19:41.785Z,100930.75
2022-08-26T04:21:44.526Z,100924.38
2022-08-26T04:23:47.778Z,100927.53
2022-08-26T04:25:49.805Z,100925.56
2022-08-26T04:27:51.822Z,100927.91
2022-08-26T04:29:55.334Z,100925.13
2022-08-26T04:31:57.133Z,100925.47
2022-08-26T04:33:59.037Z,100926.13
2022-08-26T04:36:05.738Z,100924.28
2022-08-26T04:38:07.469Z,100921.25
2022-08-26T04:40:09.918Z,100928.28
2022-08-26T04:42:11.776Z,100929.56
2022-08-26T04:44:15.253Z,100929.00
2022-08-26T04:46:20.806Z,100930.97
2022-08-26T04:48:22.597Z,100925.03
2022-08-26T04:50:24.664Z,100932.88
2022-08-26T04:52:26.786Z,100925.69
2022-08-26T04:54:29.970Z,100930.38
2022-08-26T04:56:35.387Z,100933.63
2022-08-26T04:58:37.240Z,100926.78
2022-08-26T05:00:39.008Z,100947.03
2022-08-26T05:02:41.184Z,100936.13
2022-08-26T05:04:44.497Z,100948.13
2022-08-26T05:06:47.944Z,100953.19
2022-08-26T05:08:50.099Z,100945.53
2022-08-26T05:10:54.731Z,100947.47
2022-08-26T05:12:57.452Z,100939.31
2022-08-26T05:15:00.389Z,100945.25
2022-08-26T05:17:02.122Z,100947.97
2022-08-26T05:19:03.979Z,100946.00
2022-08-26T05:21:07.590Z,100943.25
2022-08-26T05:23:09.577Z,100953.34
2022-08-26T05:25:11.674Z,100940.97
2022-08-26T05:27:14.367Z,100942.66
2022-08-26T05:29:17.038Z,100944.56
2022-08-26T05:31:22.646Z,100940.66
2022-08-26T05:33:24.715Z,100933.41
2022-08-26T05:35:28.736Z,100939.38
2022-08-26T05:37:33.257Z,100935.69
2022-08-26T05:39:36.053Z,100940.13
2022-08-26T05:41:40.249Z,100940.56
2022-08-26T05:43:42.390Z,100896.66
2022-08-26T05:45:48.206Z,100931.72
2022-08-26T05:47:51.175Z,100925.13
2022-08-26T05:49:53.080Z,100932.84
2022-08-26T05:51:54.815Z,100937.69
2022-08-26T05:53:56.620Z,100939.09
2022-08-26T05:55:59.951Z,100925.78
2022-08-26T05:58:02.767Z,100940.22
2022-08-26T06:00:05.514Z,100930.97
2022-08-26T06:02:08.228Z,100934.88
2022-08-26T06:04:11.710Z,100937.50
2022-08-26T06:06:16.832Z,100937.09
2022-08-26T06:08:22.478Z,100937.34
2022-08-26T06:10:32.946Z,100933.22
2022-08-26T06:12:34.877Z,100940.75
2022-08-26T06:14:37.201Z,100932.53
2022-08-26T06:16:41.813Z,100929.22
2022-08-26T06:18:45.803Z,100928.84
2022-08-26T06:20:57.339Z,100933.25
2022-08-26T06:23:00.023Z,100933.06
2022-08-26T06:25:01.789Z,100929.78
2022-08-26T06:27:05.961Z,100930.84
2022-08-26T06:29:08.343Z,100922.59
2022-08-26T06:31:10.430Z,100934.03
2022-08-26T06:33:12.850Z,100933.81
2022-08-26T06:35:14.591Z,100944.81
2022-08-26T06:37:16.341Z,100932.78
2022-08-26T06:39:18.601Z,100941.09
2022-08-26T06:41:23.198Z,100936.97
2022-08-26T06:43:27.281Z,100939.66
2022-08-26T06:45:30.477Z,100941.72
2022-08-26T06:47:33.446Z,100926.13
2022-08-26T06:49:35.899Z,100936.84
2022-08-26T06:51:40.018Z,100944.06
2022-08-26T06:53:43.608Z,100942.97
2022-08-26T06:55:46.396Z,100940.81
2022-08-26T06:57:48.164Z,100942.06
2022-08-26T06:59:51.205Z,100941.03
2022-08-26T07:01:53.531Z,100946.16
2022-08-26T07:03:58.833Z,100940.78
2022-08-26T07:06:02.954Z,100939.94
2022-08-26T07:08:05.423Z,100941.69
2022-08-26T07:10:08.304Z,100949.75
2022-08-26T07:12:10.044Z,100944.38
2022-08-26T07:14:13.184Z,100948.34
2022-08-26T07:16:16.906Z,100954.41
2022-08-26T07:18:18.719Z,100945.38
2022-08-26T07:20:24.719Z,100942.22
2022-08-26T07:22:26.759Z,100945.16
2022-08-26T07:24:29.317Z,100947.38
2022-08-26T07:26:31.491Z,100907.84
2022-08-26T07:28:33.222Z,100941.63
2022-08-26T07:30:39.820Z,100948.09
2022-08-26T07:32:42.457Z,100943.28
2022-08-26T07:34:44.573Z,100948.75
2022-08-26T07:36:46.345Z,100946.81
2022-08-26T07:38:48.644Z,100949.06
2022-08-26T07:40:50.420Z,100938.69
2022-08-26T07:42:52.590Z,100947.47
2022-08-26T07:44:54.385Z,100937.22
2022-08-26T07:46:56.167Z,100941.50
2022-08-26T07:48:59.245Z,100938.50
2022-08-26T07:51:01.241Z,100933.81
2022-08-26T07:53:04.557Z,100928.38
2022-08-26T07:55:08.149Z,100935.47
2022-08-26T07:57:09.906Z,100935.38
2022-08-26T07:59:14.027Z,100933.66
2022-08-26T08:01:17.022Z,100932.09
2022-08-26T08:03:18.897Z,100933.81
2022-08-26T08:05:22.757Z,100927.38
2022-08-26T08:07:44.513Z,100929.03
2022-08-26T08:09:47.414Z,100933.75
2022-08-26T08:11:49.692Z,100928.72
2022-08-26T08:13:56.294Z,100912.13
2022-08-26T08:15:58.610Z,100925.31
2022-08-26T08:18:01.076Z,100924.69
2022-08-26T08:20:03.074Z,100939.75
2022-08-26T08:22:17.068Z,100940.66
2022-08-26T08:24:19.828Z,100928.81
2022-08-26T08:26:23.823Z,100920.56
2022-08-26T08:28:25.392Z,100924.69
2022-08-26T08:30:27.746Z,100920.44
2022-08-26T08:32:29.640Z,100922.06
2022-08-26T08:34:31.633Z,100921.63
2022-08-26T08:36:35.982Z,100917.78
2022-08-26T08:38:38.077Z,100907.63
2022-08-26T08:40:42.234Z,100912.16
2022-08-26T08:44:59.611Z,100914.56
2022-08-26T08:47:12.503Z,100909.94
2022-08-26T08:49:15.552Z,100914.28
2022-08-26T08:51:42.319Z,100918.94
2022-08-26T08:53:48.095Z,100922.16
2022-08-26T08:56:01.300Z,100916.81
2022-08-26T08:58:08.595Z,100898.06
2022-08-26T09:00:16.346Z,100910.59
2022-08-26T09:02:30.641Z,100897.34
2022-08-26T09:04:55.669Z,100911.91
2022-08-26T09:07:02.152Z,100913.00
2022-08-26T09:09:05.484Z,100910.16
2022-08-26T09:11:07.898Z,100919.03
2022-08-26T09:13:22.465Z,100906.25
2022-08-26T09:15:48.529Z,100912.69
2022-08-26T09:17:53.772Z,100911.19
2022-08-26T09:20:06.920Z,100905.22
2022-08-26T09:22:09.922Z,100915.16
2022-08-26T09:24:14.006Z,100898.88
2022-08-26T09:26:41.123Z,100906.69
2022-08-26T09:28:47.805Z,100906.06
2022-08-26T09:31:11.490Z,100909.97
2022-08-26T09:33:18.567Z,100885.75
2022-08-26T09:35:30.807Z,100900.09
2022-08-26T09:37:53.983Z,100904.84
2022-08-26T09:40:23.341Z,100900.84
2022-08-26T09:42:25.110Z,100895.31
2022-08-26T09:44:26.980Z,100894.50
2022-08-26T09:46:28.972Z,100892.13
2022-08-26T09:48:35.472Z,100899.72
2022-08-26T09:50:52.157Z,100896.16
2022-08-26T09:53:12.955Z,100892.78
2022-08-26T09:55:24.031Z,100891.06
2022-08-26T09:57:29.020Z,100886.91
2022-08-26T09:59:30.794Z,100891.56
2022-08-26T10:01:39.409Z,100891.00
2022-08-26T10:03:42.272Z,100884.53
2022-08-26T10:05:55.675Z,100885.66
2022-08-26T10:07:58.327Z,100888.84
2022-08-26T10:10:03.570Z,100878.41
2022-08-26T10:12:19.325Z,100877.78
2022-08-26T10:14:39.061Z,100876.19
2022-08-26T10:16:59.195Z,100861.72
2022-08-26T10:19:08.270Z,100867.41
2022-08-26T10:21:31.152Z,100868.00
2022-08-26T10:25:51.665Z,100871.41
2022-08-26T10:28:08.130Z,100863.16
2022-08-26T10:30:15.041Z,100861.19
2022-08-26T10:32:41.361Z,100866.72
2022-08-26T10:34:43.943Z,100865.16
2022-08-26T10:37:14.547Z,100861.13
2022-08-26T10:39:34.504Z,100859.03
2022-08-26T10:41:41.425Z,100859.75
2022-08-26T10:43:49.046Z,100863.78
2022-08-26T10:45:54.903Z,100856.06
2022-08-26T10:48:00.974Z,100863.81
2022-08-26T10:50:03.708Z,100853.75
2022-08-26T10:52:17.227Z,100855.00
2022-08-26T10:54:40.293Z,100853.03
2022-08-26T10:57:10.714Z,100850.56
2022-08-26T10:59:34.094Z,100846.16
2022-08-26T11:01:40.813Z,100846.91
2022-08-26T11:03:42.771Z,100839.28
2022-08-26T11:05:44.530Z,100842.84
2022-08-26T11:07:48.134Z,100850.22
2022-08-26T11:09:51.284Z,100840.84
2022-08-26T11:11:53.059Z,100846.97
2022-08-26T11:13:58.957Z,100832.03
2022-08-26T11:16:01.079Z,100837.19
2022-08-26T11:18:06.912Z,100828.28
2022-08-26T11:20:22.549Z,100831.88
2022-08-26T11:22:35.506Z,100833.00
2022-08-26T11:24:57.767Z,100830.81
2022-08-26T11:26:59.648Z,100825.88
2022-08-26T11:29:03.157Z,100825.88
2022-08-26T11:31:09.582Z,100820.44
2022-08-26T11:33:40.897Z,100818.81
2022-08-26T11:35:42.576Z,100812.75
2022-08-26T11:37:56.591Z,100818.25
2022-08-26T11:39:58.441Z,100819.84
2022-08-26T11:42:15.400Z,100817.41
2022-08-26T11:44:25.533Z,100810.03
2022-08-26T11:46:29.705Z,100819.09
2022-08-26T11:48:37.085Z,100813.31
2022-08-26T11:50:38.846Z,100813.56
2022-08-26T11:52:41.036Z,100811.38
2022-08-26T11:55:06.412Z,100810.84
2022-08-26T11:57:12.900Z,100807.06
2022-08-26T11:59:24.967Z,100805.63
2022-08-26T12:01:34.123Z,100799.09
2022-08-26T12:03:44.992Z,100803.22
2022-08-26T12:05:50.387Z,100797.97
2022-08-26T12:07:53.167Z,100793.03
2022-08-26T12:09:58.532Z,100786.25
2022-08-26T12:12:21.432Z,100784.59
2022-08-26T12:14:27.808Z,100786.50
2022-08-26T12:16:32.959Z,100781.84
2022-08-26T12:18:39.058Z,100779.69
2022-08-26T12:20:42.118Z,100772.31
2022-08-26T12:22:48.106Z,100771.19
2022-08-26T12:24:53.932Z,100756.69
2022-08-26T12:27:25.394Z,100767.13
2022-08-26T12:29:28.343Z,100768.13
2022-08-26T12:31:43.031Z,100767.03
2022-08-26T12:33:45.161Z,100766.13
2022-08-26T12:35:48.541Z,100764.19
2022-08-26T12:37:54.791Z,100759.84
2022-08-26T12:40:35.289Z,100761.59
2022-08-26T12:42:42.171Z,100751.13
2022-08-26T12:44:53.080Z,100755.44
2022-08-26T12:47:02.761Z,100758.16
2022-08-26T12:49:04.686Z,100752.09
2022-08-26T12:51:09.062Z,100749.97
2022-08-26T12:53:10.822Z,100747.34
2022-08-26T12:55:23.209Z,100742.50
2022-08-26T12:57:33.635Z,100750.88
2022-08-26T12:59:35.468Z,100741.63
2022-08-26T13:01:40.823Z,100726.63
2022-08-26T13:03:45.328Z,100738.28
2022-08-26T13:05:47.174Z,100732.28
2022-08-26T13:08:12.326Z,100733.09
2022-08-26T13:10:34.440Z,100726.38
2022-08-26T13:12:36.303Z,100730.50
2022-08-26T13:14:38.196Z,100727.16
2022-08-26T13:16:40.931Z,100724.22
2022-08-26T13:18:42.806Z,100724.53
2022-08-26T13:20:44.684Z,100725.72
2022-08-26T13:22:48.165Z,100726.03
2022-08-26T13:25:00.449Z,100724.38
2022-08-26T13:27:04.029Z,100718.59
2022-08-26T13:29:10.055Z,100709.50
2022-08-26T13:31:13.568Z,100714.25
2022-08-26T13:33:15.731Z,100715.31
2022-08-26T13:35:18.315Z,100706.31
2022-08-26T13:37:20.179Z,100706.06
2022-08-26T13:39:22.820Z,100710.44
2022-08-26T13:41:29.289Z,100712.09
2022-08-26T13:43:32.190Z,100696.44
2022-08-26T13:45:34.039Z,100701.91
2022-08-26T13:47:36.152Z,100695.63
2022-08-26T13:49:37.953Z,100697.00
2022-08-26T13:51:39.913Z,100687.69
2022-08-26T13:53:41.718Z,100691.78
2022-08-26T13:55:43.932Z,100687.31
2022-08-26T13:57:45.780Z,100681.28
2022-08-26T13:59:47.579Z,100683.47
2022-08-26T14:01:49.416Z,100673.59
2022-08-26T14:03:51.365Z,100677.22
2022-08-26T14:05:53.472Z,100668.13
2022-08-26T14:07:55.321Z,100675.25
2022-08-26T14:09:59.828Z,100670.63
2022-08-26T14:12:02.845Z,100665.72
2022-08-26T14:14:04.760Z,100670.69
2022-08-26T14:16:16.385Z,100658.38
2022-08-26T14:18:20.844Z,100671.47
2022-08-26T14:20:28.938Z,100664.06
2022-08-26T14:22:30.849Z,100659.06
2022-08-26T14:24:32.656Z,100664.84
2022-08-26T14:26:34.837Z,100659.94
2022-08-26T14:28:37.925Z,100661.88
2022-08-26T14:30:42.633Z,100656.16
2022-08-26T14:32:48.557Z,100657.78
2022-08-26T14:34:51.067Z,100653.94
2022-08-26T14:36:52.900Z,100647.69
2022-08-26T14:39:06.179Z,100644.41
2022-08-26T14:41:08.023Z,100650.38
2022-08-26T14:43:10.064Z,100646.06
2022-08-26T14:45:15.701Z,100649.28
2022-08-26T14:47:17.587Z,100645.19
2022-08-26T14:49:20.305Z,100641.88
2022-08-26T14:51:22.222Z,100641.84
2022-08-26T14:53:24.967Z,100641.88
2022-08-26T14:55:27.660Z,100641.63
2022-08-26T14:57:29.475Z,100635.88
2022-08-26T14:59:34.046Z,100634.59
2022-08-26T15:01:35.989Z,100633.16
2022-08-26T15:03:37.845Z,100613.00
2022-08-26T15:05:39.704Z,100636.72
2022-08-26T15:07:41.537Z,100621.16
2022-08-26T15:09:43.368Z,100628.31
2022-08-26T15:11:47.586Z,100616.84
2022-08-26T15:13:50.001Z,100622.28
2022-08-26T15:15:51.867Z,100616.28
2022-08-26T15:17:53.759Z,100625.63
2022-08-26T15:19:55.728Z,100610.88
2022-08-26T15:21:57.637Z,100605.41
2022-08-26T15:24:00.562Z,100621.22
2022-08-26T15:26:03.290Z,100607.09
2022-08-26T15:28:06.237Z,100618.50
2022-08-26T15:30:10.870Z,100605.38
2022-08-26T15:32:12.733Z,100614.63
2022-08-26T15:34:17.057Z,100611.31
2022-08-26T15:36:19.134Z,100605.28
2022-08-26T15:38:20.958Z,100608.03
2022-08-26T15:40:25.544Z,100594.66
2022-08-26T15:42:27.494Z,100603.09
2022-08-26T15:44:29.459Z,100600.63
2022-08-26T15:46:31.351Z,100597.66
2022-08-26T15:48:33.223Z,100601.97
2022-08-26T15:50:35.084Z,100601.97
2022-08-26T15:52:39.570Z,100597.53
2022-08-26T15:54:41.399Z,100601.16
2022-08-26T15:56:43.625Z,100599.81
2022-08-26T15:58:45.554Z,100596.03
2022-08-26T16:00:47.828Z,100597.72
2022-08-26T16:02:49.758Z,100599.38
2022-08-26T16:04:51.564Z,100591.72
2022-08-26T16:06:54.192Z,100592.00
2022-08-26T16:08:56.506Z,100595.03
2022-08-26T16:11:03.427Z,100593.09
2022-08-26T16:13:06.244Z,100589.53
2022-08-26T16:15:09.756Z,100589.56
2022-08-26T16:17:11.603Z,100584.06
2022-08-26T16:19:13.545Z,100577.53
2022-08-26T16:21:17.669Z,100577.78
2022-08-26T16:23:19.583Z,100580.22
2022-08-26T16:25:21.939Z,100581.03
2022-08-26T16:27:24.043Z,100582.44
2022-08-26T16:29:26.036Z,100580.81
2022-08-26T16:31:27.908Z,100575.34
2022-08-26T16:33:29.817Z,100578.38
2022-08-26T16:35:31.757Z,100576.44
2022-08-26T16:37:35.440Z,100573.16
2022-08-26T16:39:40.198Z,100572.09
2022-08-26T16:41:47.120Z,100561.72
2022-08-26T16:43:52.040Z,100562.84
2022-08-26T16:45:53.993Z,100568.84
2022-08-26T16:47:57.340Z,100571.34
2022-08-26T16:49:59.074Z,100569.41
2022-08-26T16:52:00.990Z,100570.53
2022-08-26T16:54:03.518Z,100572.41
2022-08-26T16:56:16.467Z,100576.81
2022-08-26T16:58:21.075Z,100572.44
2022-08-26T17:00:29.804Z,100573.28
2022-08-26T17:02:31.680Z,100568.28
2022-08-26T17:04:33.795Z,100577.00
2022-08-26T17:06:36.101Z,100575.34
2022-08-26T17:08:39.571Z,100568.19
2022-08-26T17:10:44.367Z,100568.94
2022-08-26T17:12:46.562Z,100570.00
2022-08-26T17:14:48.698Z,100556.81
2022-08-26T17:16:50.951Z,100576.97
2022-08-26T17:18:52.810Z,100575.78
2022-08-26T17:20:55.221Z,100576.22
2022-08-26T17:22:57.223Z,100571.19
2022-08-26T17:24:59.096Z,100571.59
2022-08-26T17:27:01.323Z,100573.69
2022-08-26T17:29:03.233Z,100572.75
2022-08-26T17:31:07.593Z,100563.84
2022-08-26T17:33:10.814Z,100572.63
2022-08-26T17:35:13.710Z,100577.94
2022-08-26T17:37:15.660Z,100578.97
2022-08-26T17:39:17.867Z,100578.63
2022-08-26T17:41:19.660Z,100578.56
2022-08-26T17:43:21.436Z,100584.06
2022-08-26T17:45:23.333Z,100579.16
2022-08-26T17:47:25.138Z,100584.78
2022-08-26T17:49:26.967Z,100577.94
2022-08-26T17:51:28.784Z,100587.00
2022-08-26T17:53:30.519Z,100593.09
2022-08-26T17:55:32.355Z,100595.88
2022-08-26T17:57:40.482Z,100593.28
2022-08-26T17:59:42.714Z,100599.09
2022-08-26T18:01:44.560Z,100601.38
2022-08-26T18:03:46.432Z,100598.25
2022-08-26T18:05:50.737Z,100596.66
2022-08-26T18:07:52.516Z,100599.16
2022-08-26T18:09:54.279Z,100597.41
2022-08-26T18:11:56.076Z,100595.59
2022-08-26T18:13:58.748Z,100601.38
2022-08-26T18:16:04.420Z,100596.56
2022-08-26T18:18:06.343Z,100596.22
2022-08-26T18:20:10.835Z,100595.25
2022-08-26T18:22:15.780Z,100598.09
2022-08-26T18:24:17.960Z,100596.34
2022-08-26T18:26:23.892Z,100599.22
2022-08-26T18:28:25.684Z,100606.88
2022-08-26T18:30:27.461Z,100611.22
2022-08-26T18:32:30.358Z,100605.56
2022-08-26T18:34:32.111Z,100604.19
2022-08-26T18:36:36.612Z,100605.56
2022-08-26T18:38:38.410Z,100605.19
2022-08-26T18:40:45.750Z,100605.06
2022-08-26T18:42:53.954Z,100609.06
2022-08-26T18:44:56.074Z,100611.16
2022-08-26T18:46:57.831Z,100606.31
2022-08-26T18:48:59.775Z,100611.09
2022-08-26T18:51:01.533Z,100609.06
2022-08-26T18:53:03.321Z,100606.47
2022-08-26T18:55:05.713Z,100599.41
2022-08-26T18:57:07.510Z,100605.75
2022-08-26T18:59:10.366Z,100605.69
2022-08-26T19:01:12.701Z,100606.13
2022-08-26T19:03:18.839Z,100596.53
2022-08-26T19:05:21.036Z,100609.94
2022-08-26T19:07:22.784Z,100609.19
2022-08-26T19:09:24.611Z,100610.22
2022-08-26T19:11:32.020Z,100613.97
2022-08-26T19:13:39.381Z,100613.25
2022-08-26T19:15:45.026Z,100605.44
2022-08-26T19:17:46.806Z,100601.19
2022-08-26T19:19:48.655Z,100612.97
2022-08-26T19:21:50.859Z,100609.34
2022-08-26T19:23:56.649Z,100615.59
2022-08-26T19:25:58.659Z,100601.16
2022-08-26T19:28:00.441Z,100610.00
2022-08-26T19:30:02.236Z,100606.69
2022-08-26T19:32:05.135Z,100611.47
2022-08-26T19:34:06.968Z,100612.16
2022-08-26T19:36:14.965Z,100610.13
2022-08-26T19:38:16.864Z,100600.06
2022-08-26T19:40:18.722Z,100608.78
2022-08-26T19:42:20.846Z,100603.19
2022-08-26T19:44:23.706Z,100601.78
2022-08-26T19:46:26.021Z,100600.16
2022-08-26T19:48:27.889Z,100608.44
2022-08-26T19:50:32.143Z,100615.06
2022-08-26T19:52:34.178Z,100603.88
2022-08-26T19:54:36.285Z,100607.84
2022-08-26T19:56:38.054Z,100607.91
2022-08-26T19:58:40.388Z,100612.06
2022-08-26T20:00:42.137Z,100613.50
2022-08-26T20:02:44.485Z,100610.88
2022-08-26T20:04:46.442Z,100613.00
2022-08-26T20:06:48.175Z,100607.88
2022-08-26T20:08:56.230Z,100618.25
2022-08-26T20:11:04.784Z,100616.78
2022-08-26T20:13:06.528Z,100615.59
2022-08-26T20:15:12.759Z,100620.81
2022-08-26T20:17:14.694Z,100620.44
2022-08-26T20:19:16.545Z,100622.56
2022-08-26T20:21:18.390Z,100624.03
2022-08-26T20:23:20.231Z,100621.91
2022-08-26T20:25:22.156Z,100622.94
2022-08-26T20:27:24.330Z,100623.19
2022-08-26T20:29:26.436Z,100624.22
2022-08-26T20:31:29.041Z,100627.97
2022-08-26T20:33:32.219Z,100626.72
2022-08-26T20:35:47.991Z,100632.56
2022-08-26T20:37:49.925Z,100635.25
2022-08-26T20:39:51.774Z,100640.03
2022-08-26T20:41:53.617Z,100622.44
2022-08-26T20:43:56.315Z,100632.16
2022-08-26T20:45:58.262Z,100634.84
2022-08-26T20:48:00.179Z,100626.97
2022-08-26T20:50:02.095Z,100635.69
2022-08-26T20:52:04.591Z,100639.00
2022-08-26T20:54:07.094Z,100632.78
2022-08-26T20:56:10.988Z,100638.41
2022-08-26T20:58:12.844Z,100642.34
2022-08-26T21:00:15.069Z,100636.13
2022-08-26T21:02:18.795Z,100645.69
2022-08-26T21:04:23.451Z,100644.22
2022-08-26T21:06:25.340Z,100641.31
2022-08-26T21:08:27.152Z,100632.41
2022-08-26T21:10:29.034Z,100636.75
2022-08-26T21:12:30.930Z,100643.19
2022-08-26T21:14:32.823Z,100634.06
2022-08-26T21:16:36.438Z,100642.34
2022-08-26T21:18:38.978Z,100638.00
2022-08-26T21:20:40.867Z,100635.09
2022-08-26T21:22:43.221Z,100635.13
2022-08-26T21:24:45.075Z,100626.03
2022-08-26T21:26:47.591Z,100631.00
2022-08-26T21:28:50.051Z,100618.81
2022-08-26T21:30:51.882Z,100626.44
2022-08-26T21:32:53.710Z,100625.41
2022-08-26T21:34:57.338Z,100633.72
2022-08-26T21:36:59.017Z,100636.63
2022-08-26T21:39:01.484Z,100642.44
2022-08-26T21:41:09.894Z,100642.59
2022-08-26T21:43:13.128Z,100639.31
2022-08-26T21:45:27.878Z,100639.31
2022-08-26T21:47:29.922Z,100645.53
2022-08-26T21:49:31.770Z,100638.69
2022-08-26T21:51:36.796Z,100647.16
2022-08-26T21:53:39.112Z,100604.75
2022-08-26T21:55:41.133Z,100635.97
2022-08-26T21:57:42.982Z,100639.50
2022-08-26T21:59:44.796Z,100642.00
2022-08-26T22:01:47.345Z,100633.53
2022-08-26T22:03:50.825Z,100644.28
2022-08-26T22:05:52.966Z,100635.19
2022-08-26T22:07:54.931Z,100651.94
2022-08-26T22:09:56.749Z,100646.75
2022-08-26T22:11:59.360Z,100640.75
2022-08-26T22:14:01.219Z,100640.75
2022-08-26T22:16:03.662Z,100639.72
2022-08-26T22:18:05.639Z,100641.41
2022-08-26T22:20:08.527Z,100643.47
2022-08-26T22:22:18.599Z,100640.38
2022-08-26T22:24:22.771Z,100647.19
2022-08-26T22:26:27.899Z,100639.53
2022-08-26T22:28:29.853Z,100634.56
2022-08-26T22:30:32.202Z,100630.22
2022-08-26T22:32:34.054Z,100634.16
2022-08-26T22:34:35.928Z,100638.72
2022-08-26T22:36:43.092Z,100627.94
2022-08-26T22:38:46.961Z,100641.84
2022-08-26T22:40:54.041Z,100636.66
2022-08-26T22:42:59.999Z,100628.19
2022-08-26T22:45:03.962Z,100633.94
2022-08-26T22:47:07.565Z,100633.97
2022-08-26T22:49:11.936Z,100638.34
2022-08-26T22:51:13.958Z,100632.94
2022-08-26T22:53:17.169Z,100633.97
2022-08-26T22:55:19.038Z,100629.66
2022-08-26T22:57:21.442Z,100631.69
2022-08-26T22:59:23.288Z,100635.00
2022-08-26T23:01:25.305Z,100622.00
2022-08-26T23:03:27.981Z,100624.84
2022-08-26T23:05:30.401Z,100625.25
2022-08-26T23:07:32.264Z,100627.97
2022-08-26T23:09:35.002Z,100617.81
2022-08-26T23:11:37.213Z,100622.81
2022-08-26T23:13:39.435Z,100620.91
2022-08-26T23:15:43.047Z,100617.81
2022-08-26T23:17:44.790Z,100615.53
2022-08-26T23:19:46.589Z,100608.31
2022-08-26T23:21:48.786Z,100615.13
2022-08-26T23:23:50.605Z,100614.09
2022-08-26T23:25:52.418Z,100614.09
2022-08-26T23:27:57.217Z,100614.31
2022-08-26T23:29:59.189Z,100611.00
2022-08-26T23:32:04.517Z,100605.81
2022-08-26T23:34:06.888Z,100598.38
2022-08-26T23:36:08.936Z,100607.50
2022-08-26T23:38:11.698Z,100604.38
2022-08-26T23:40:20.936Z,100606.63
2022-08-26T23:42:22.866Z,100599.78
2022-08-26T23:44:24.902Z,100596.06
2022-08-26T23:46:26.784Z,100597.72